sensor_id;sensor_type;location;lat;lon;timestamp;temperature;humidity
55329;DHT22;41205;44.264;19.884;2022-12-19T00:01:06;25.60;2201.60
55329;DHT22;41205;44.264;19.884;2022-12-19T00:03:34;25.60;2201.60
55329;DHT22;41205;44.264;19.884;2022-12-19T00:06:03;25.70;2201.60
55329;DHT22;41205;44.264;19.884;2022-12-19T00:08:29;25.70;2201.60
55329;DHT22;41205;44.264;19.884;2022-12-19T00:10:59;25.70;2201.60
55329;DHT22;41205;44.264;19.884;2022-12-19T00:13:27;25.70;2201.60
55329;DHT22;41205;44.264;19.884;2022-12-19T00:15:53;25.60;2201.60
55329;DHT22;41205;44.264;19.884;2022-12-19T00:18:18;25.60;2201.60
55329;DHT22;41205;44.264;19.884;2022-12-19T00:20:52;25.60;2201.60
55329;DHT22;41205;44.264;19.884;2022-12-19T00:23:18;25.60;2201.60
55329;DHT22;41205;44.264;19.884;2022-12-19T00:25:43;25.70;2201.60
55329;DHT22;41205;44.264;19.884;2022-12-19T00:28:09;25.60;2201.60
55329;DHT22;41205;44.264;19.884;2022-12-19T00:30:35;25.60;2201.60
55329;DHT22;41205;44.264;19.884;2022-12-19T00:33:00;0.90;2201.60
55329;DHT22;41205;44.264;19.884;2022-12-19T00:35:26;0.70;2201.60
55329;DHT22;41205;44.264;19.884;2022-12-19T00:37:52;0.70;2201.60
55329;DHT22;41205;44.264;19.884;2022-12-19T00:40:17;0.80;2201.60
55329;DHT22;41205;44.264;19.884;2022-12-19T00:42:43;0.90;2201.60
55329;DHT22;41205;44.264;19.884;2022-12-19T00:45:09;0.90;2201.60
55329;DHT22;41205;44.264;19.884;2022-12-19T00:47:34;0.70;2201.60
55329;DHT22;41205;44.264;19.884;2022-12-19T00:50:00;0.70;2201.60
55329;DHT22;41205;44.264;19.884;2022-12-19T00:52:26;0.80;2201.60
55329;DHT22;41205;44.264;19.884;2022-12-19T00:54:52;0.70;2201.60
55329;DHT22;41205;44.264;19.884;2022-12-19T00:57:17;0.60;2201.60
55329;DHT22;41205;44.264;19.884;2022-12-19T00:59:43;0.70;2201.60
55329;DHT22;41205;44.264;19.884;2022-12-19T01:02:09;0.60;2201.60
55329;DHT22;41205;44.264;19.884;2022-12-19T01:04:34;0.70;2201.60
55329;DHT22;41205;44.264;19.884;2022-12-19T01:07:00;0.70;2201.60
55329;DHT22;41205;44.264;19.884;2022-12-19T01:09:26;0.60;2201.60
55329;DHT22;41205;44.264;19.884;2022-12-19T01:11:52;0.60;2201.60
55329;DHT22;41205;44.264;19.884;2022-12-19T01:14:36;0.60;2201.60
55329;DHT22;41205;44.264;19.884;2022-12-19T01:17:01;0.40;2201.60
55329;DHT22;41205;44.264;19.884;2022-12-19T01:19:27;0.40;2201.60
55329;DHT22;41205;44.264;19.884;2022-12-19T01:21:53;0.40;2201.60
55329;DHT22;41205;44.264;19.884;2022-12-19T01:24:19;0.20;2201.60
55329;DHT22;41205;44.264;19.884;2022-12-19T01:26:44;0.20;2201.60
55329;DHT22;41205;44.264;19.884;2022-12-19T01:29:10;0.10;2201.60
55329;DHT22;41205;44.264;19.884;2022-12-19T01:31:36;0.10;2201.60
55329;DHT22;41205;44.264;19.884;2022-12-19T01:34:02;0.20;2201.60
55329;DHT22;41205;44.264;19.884;2022-12-19T01:36:27;0.10;2201.60
55329;DHT22;41205;44.264;19.884;2022-12-19T01:38:57;12.90;2201.60
55329;DHT22;41205;44.264;19.884;2022-12-19T01:41:23;13.10;2201.60
55329;DHT22;41205;44.264;19.884;2022-12-19T01:44:07;13.40;2201.60
55329;DHT22;41205;44.264;19.884;2022-12-19T01:46:43;13.40;2201.60
55329;DHT22;41205;44.264;19.884;2022-12-19T01:49:33;13.40;2201.60
55329;DHT22;41205;44.264;19.884;2022-12-19T01:52:02;13.40;2201.60
55329;DHT22;41205;44.264;19.884;2022-12-19T01:54:32;13.20;2201.60
55329;DHT22;41205;44.264;19.884;2022-12-19T01:57:00;13.00;2201.60
55329;DHT22;41205;44.264;19.884;2022-12-19T01:59:36;13.00;2201.60
55329;DHT22;41205;44.264;19.884;2022-12-19T02:02:09;12.90;2201.60
55329;DHT22;41205;44.264;19.884;2022-12-19T02:04:35;12.90;2201.60
55329;DHT22;41205;44.264;19.884;2022-12-19T02:07:03;13.10;2201.60
55329;DHT22;41205;44.264;19.884;2022-12-19T02:09:29;13.10;2201.60
55329;DHT22;41205;44.264;19.884;2022-12-19T02:11:58;13.00;2201.60
55329;DHT22;41205;44.264;19.884;2022-12-19T02:14:24;13.00;2201.60
55329;DHT22;41205;44.264;19.884;2022-12-19T02:19:31;13.20;2201.60
55329;DHT22;41205;44.264;19.884;2022-12-19T02:27:29;13.20;2201.60
55329;DHT22;41205;44.264;19.884;2022-12-19T02:32:53;38.40;2201.60
55329;DHT22;41205;44.264;19.884;2022-12-19T02:35:34;13.70;2201.60
55329;DHT22;41205;44.264;19.884;2022-12-19T02:41:25;13.40;2201.60
55329;DHT22;41205;44.264;19.884;2022-12-19T02:43:54;13.40;2201.60
55329;DHT22;41205;44.264;19.884;2022-12-19T02:46:21;13.30;2201.60
55329;DHT22;41205;44.264;19.884;2022-12-19T02:48:47;13.30;2201.60
55329;DHT22;41205;44.264;19.884;2022-12-19T02:51:13;13.30;2201.60
55329;DHT22;41205;44.264;19.884;2022-12-19T02:53:39;13.40;2201.60
55329;DHT22;41205;44.264;19.884;2022-12-19T03:01:47;13.50;2201.60
55329;DHT22;41205;44.264;19.884;2022-12-19T03:07:01;13.30;2201.60
55329;DHT22;41205;44.264;19.884;2022-12-19T03:09:44;13.20;2201.60
55329;DHT22;41205;44.264;19.884;2022-12-19T03:12:17;13.10;2201.60
55329;DHT22;41205;44.264;19.884;2022-12-19T03:14:46;13.10;2201.60
55329;DHT22;41205;44.264;19.884;2022-12-19T03:17:12;13.00;2201.60
55329;DHT22;41205;44.264;19.884;2022-12-19T03:19:39;13.00;2201.60
55329;DHT22;41205;44.264;19.884;2022-12-19T03:22:06;13.10;2201.60
55329;DHT22;41205;44.264;19.884;2022-12-19T03:24:32;13.10;2201.60
55329;DHT22;41205;44.264;19.884;2022-12-19T03:27:02;13.50;2201.60
55329;DHT22;41205;44.264;19.884;2022-12-19T03:29:30;13.70;2201.60
55329;DHT22;41205;44.264;19.884;2022-12-19T03:32:00;38.40;2201.60
55329;DHT22;41205;44.264;19.884;2022-12-19T03:34:51;38.50;2201.60
55329;DHT22;41205;44.264;19.884;2022-12-19T03:37:20;38.50;2201.60
55329;DHT22;41205;44.264;19.884;2022-12-19T03:39:52;38.70;2201.60
55329;DHT22;41205;44.264;19.884;2022-12-19T03:42:20;38.60;2201.60
55329;DHT22;41205;44.264;19.884;2022-12-19T03:45:06;38.40;2201.60
55329;DHT22;41205;44.264;19.884;2022-12-19T03:47:38;13.70;2201.60
55329;DHT22;41205;44.264;19.884;2022-12-19T03:50:05;13.60;2201.60
55329;DHT22;41205;44.264;19.884;2022-12-19T03:52:44;13.70;2201.60
55329;DHT22;41205;44.264;19.884;2022-12-19T03:55:39;13.70;2201.60
55329;DHT22;41205;44.264;19.884;2022-12-19T03:58:09;38.50;2201.60
55329;DHT22;41205;44.264;19.884;2022-12-19T04:00:38;38.60;2201.60
55329;DHT22;41205;44.264;19.884;2022-12-19T04:03:06;38.60;2201.60
55329;DHT22;41205;44.264;19.884;2022-12-19T04:05:32;38.70;2201.60
55329;DHT22;41205;44.264;19.884;2022-12-19T04:08:05;38.60;2201.60
55329;DHT22;41205;44.264;19.884;2022-12-19T04:10:35;38.50;2201.60
55329;DHT22;41205;44.264;19.884;2022-12-19T04:13:12;38.60;2201.60
55329;DHT22;41205;44.264;19.884;2022-12-19T04:15:49;38.50;2201.60
55329;DHT22;41205;44.264;19.884;2022-12-19T04:18:18;38.60;2201.60
55329;DHT22;41205;44.264;19.884;2022-12-19T04:20:51;38.60;2201.60
55329;DHT22;41205;44.264;19.884;2022-12-19T04:23:27;38.70;2201.60
55329;DHT22;41205;44.264;19.884;2022-12-19T04:25:59;38.80;2201.60
55329;DHT22;41205;44.264;19.884;2022-12-19T04:30:58;38.80;2201.60
55329;DHT22;41205;44.264;19.884;2022-12-19T04:33:24;38.70;2201.60
55329;DHT22;41205;44.264;19.884;2022-12-19T04:35:49;38.60;2201.60
55329;DHT22;41205;44.264;19.884;2022-12-19T04:38:15;38.70;2201.60
55329;DHT22;41205;44.264;19.884;2022-12-19T04:40:41;38.60;2201.60
55329;DHT22;41205;44.264;19.884;2022-12-19T04:43:06;38.50;2201.60
55329;DHT22;41205;44.264;19.884;2022-12-19T04:45:33;38.40;2201.60
55329;DHT22;41205;44.264;19.884;2022-12-19T04:47:58;38.40;2201.60
55329;DHT22;41205;44.264;19.884;2022-12-19T04:50:24;38.50;2201.60
55329;DHT22;41205;44.264;19.884;2022-12-19T04:52:50;38.50;2201.60
55329;DHT22;41205;44.264;19.884;2022-12-19T04:55:15;38.40;2201.60
55329;DHT22;41205;44.264;19.884;2022-12-19T04:57:41;38.50;2201.60
55329;DHT22;41205;44.264;19.884;2022-12-19T05:00:07;38.50;2201.60
55329;DHT22;41205;44.264;19.884;2022-12-19T05:02:34;13.60;2201.60
55329;DHT22;41205;44.264;19.884;2022-12-19T05:05:00;38.50;2201.60
55329;DHT22;41205;44.264;19.884;2022-12-19T05:07:25;38.40;2201.60
55329;DHT22;41205;44.264;19.884;2022-12-19T05:09:51;38.50;2201.60
55329;DHT22;41205;44.264;19.884;2022-12-19T05:12:17;38.50;2201.60
55329;DHT22;41205;44.264;19.884;2022-12-19T05:14:42;38.60;2201.60
55329;DHT22;41205;44.264;19.884;2022-12-19T05:17:08;38.60;2201.60
55329;DHT22;41205;44.264;19.884;2022-12-19T05:19:34;38.70;2201.60
55329;DHT22;41205;44.264;19.884;2022-12-19T05:21:59;38.70;2201.60
55329;DHT22;41205;44.264;19.884;2022-12-19T05:24:25;38.80;2201.60
55329;DHT22;41205;44.264;19.884;2022-12-19T05:26:51;38.70;2201.60
55329;DHT22;41205;44.264;19.884;2022-12-19T05:29:16;38.70;2201.60
55329;DHT22;41205;44.264;19.884;2022-12-19T05:31:42;38.70;2201.60
55329;DHT22;41205;44.264;19.884;2022-12-19T05:34:08;38.80;2201.60
55329;DHT22;41205;44.264;19.884;2022-12-19T05:36:33;38.80;2201.60
55329;DHT22;41205;44.264;19.884;2022-12-19T05:38:59;38.80;2201.60
55329;DHT22;41205;44.264;19.884;2022-12-19T05:41:25;38.90;2201.60
55329;DHT22;41205;44.264;19.884;2022-12-19T05:43:53;38.90;2201.60
55329;DHT22;41205;44.264;19.884;2022-12-19T05:46:19;38.80;2201.60
55329;DHT22;41205;44.264;19.884;2022-12-19T05:48:46;38.80;2201.60
55329;DHT22;41205;44.264;19.884;2022-12-19T05:51:12;38.90;2201.60
55329;DHT22;41205;44.264;19.884;2022-12-19T05:53:38;39.00;2201.60
55329;DHT22;41205;44.264;19.884;2022-12-19T05:56:08;38.90;2201.60
55329;DHT22;41205;44.264;19.884;2022-12-19T05:58:34;38.90;2201.60
55329;DHT22;41205;44.264;19.884;2022-12-19T06:01:04;39.00;2201.60
55329;DHT22;41205;44.264;19.884;2022-12-19T06:03:30;39.00;2201.60
55329;DHT22;41205;44.264;19.884;2022-12-19T06:06:00;39.00;2201.60
55329;DHT22;41205;44.264;19.884;2022-12-19T06:08:26;39.00;2201.60
55329;DHT22;41205;44.264;19.884;2022-12-19T06:10:52;39.20;2201.60
55329;DHT22;41205;44.264;19.884;2022-12-19T06:13:17;64.00;2201.60
55329;DHT22;41205;44.264;19.884;2022-12-19T06:15:43;64.10;2201.60
55329;DHT22;41205;44.264;19.884;2022-12-19T06:18:09;64.20;2201.60
55329;DHT22;41205;44.264;19.884;2022-12-19T06:20:35;64.30;2201.60
55329;DHT22;41205;44.264;19.884;2022-12-19T06:23:00;64.40;2201.60
55329;DHT22;41205;44.264;19.884;2022-12-19T06:25:26;64.60;2201.60
55329;DHT22;41205;44.264;19.884;2022-12-19T06:27:52;64.60;2201.60
55329;DHT22;41205;44.264;19.884;2022-12-19T06:30:17;64.60;2201.60
55329;DHT22;41205;44.264;19.884;2022-12-19T06:32:43;64.50;2201.60
55329;DHT22;41205;44.264;19.884;2022-12-19T06:35:09;64.40;2201.60
55329;DHT22;41205;44.264;19.884;2022-12-19T06:37:34;64.40;2201.60
55329;DHT22;41205;44.264;19.884;2022-12-19T06:40:00;64.50;2201.60
55329;DHT22;41205;44.264;19.884;2022-12-19T06:42:26;64.50;2201.60
55329;DHT22;41205;44.264;19.884;2022-12-19T06:44:53;64.50;2201.60
55329;DHT22;41205;44.264;19.884;2022-12-19T06:47:20;64.30;2201.60
55329;DHT22;41205;44.264;19.884;2022-12-19T06:49:47;64.20;2201.60
55329;DHT22;41205;44.264;19.884;2022-12-19T06:52:14;64.20;2201.60
55329;DHT22;41205;44.264;19.884;2022-12-19T06:54:40;64.20;2201.60
55329;DHT22;41205;44.264;19.884;2022-12-19T06:57:06;64.10;2201.60
55329;DHT22;41205;44.264;19.884;2022-12-19T06:59:32;64.10;2201.60
55329;DHT22;41205;44.264;19.884;2022-12-19T07:02:19;64.00;2201.60
55329;DHT22;41205;44.264;19.884;2022-12-19T07:05:01;39.20;2201.60
55329;DHT22;41205;44.264;19.884;2022-12-19T07:07:28;38.90;2201.60
55329;DHT22;41205;44.264;19.884;2022-12-19T07:09:54;39.20;2201.60
55329;DHT22;41205;44.264;19.884;2022-12-19T07:12:20;39.10;2201.60
55329;DHT22;41205;44.264;19.884;2022-12-19T07:14:45;38.80;2201.60
55329;DHT22;41205;44.264;19.884;2022-12-19T07:17:11;38.80;2201.60
55329;DHT22;41205;44.264;19.884;2022-12-19T07:19:37;38.60;2201.60
55329;DHT22;41205;44.264;19.884;2022-12-19T07:22:04;38.50;2201.60
55329;DHT22;41205;44.264;19.884;2022-12-19T07:24:30;13.70;2201.60
55329;DHT22;41205;44.264;19.884;2022-12-19T07:26:57;13.50;2201.60
55329;DHT22;41205;44.264;19.884;2022-12-19T07:29:22;13.50;2201.60
55329;DHT22;41205;44.264;19.884;2022-12-19T07:31:48;13.20;2201.60
55329;DHT22;41205;44.264;19.884;2022-12-19T07:34:14;13.10;2201.60
55329;DHT22;41205;44.264;19.884;2022-12-19T07:36:40;13.20;2201.60
55329;DHT22;41205;44.264;19.884;2022-12-19T07:39:05;13.20;2201.60
55329;DHT22;41205;44.264;19.884;2022-12-19T07:41:31;13.10;2201.60
55329;DHT22;41205;44.264;19.884;2022-12-19T07:43:57;13.00;2201.60
55329;DHT22;41205;44.264;19.884;2022-12-19T07:46:23;12.90;2201.60
55329;DHT22;41205;44.264;19.884;2022-12-19T07:48:48;12.90;2201.60
55329;DHT22;41205;44.264;19.884;2022-12-19T07:51:15;0.00;2201.60
55329;DHT22;41205;44.264;19.884;2022-12-19T07:53:40;12.90;2201.60
55329;DHT22;41205;44.264;19.884;2022-12-19T07:56:06;13.10;2201.60
55329;DHT22;41205;44.264;19.884;2022-12-19T07:58:32;13.10;2201.60
55329;DHT22;41205;44.264;19.884;2022-12-19T08:00:59;13.00;2201.60
55329;DHT22;41205;44.264;19.884;2022-12-19T08:03:27;12.90;2201.60
55329;DHT22;41205;44.264;19.884;2022-12-19T08:05:58;0.00;2201.60
55329;DHT22;41205;44.264;19.884;2022-12-19T08:08:24;0.00;2201.60
55329;DHT22;41205;44.264;19.884;2022-12-19T08:10:50;0.10;2201.60
55329;DHT22;41205;44.264;19.884;2022-12-19T08:13:16;0.20;2201.60
55329;DHT22;41205;44.264;19.884;2022-12-19T08:15:41;0.40;2201.60
55329;DHT22;41205;44.264;19.884;2022-12-19T08:18:07;0.60;2201.60
55329;DHT22;41205;44.264;19.884;2022-12-19T08:20:33;0.70;2201.60
55329;DHT22;41205;44.264;19.884;2022-12-19T08:22:58;0.90;2201.60
55329;DHT22;41205;44.264;19.884;2022-12-19T08:25:24;26.20;2201.60
55329;DHT22;41205;44.264;19.884;2022-12-19T08:27:50;51.20;2227.20
55329;DHT22;41205;44.264;19.884;2022-12-19T08:30:16;51.30;2227.20
55329;DHT22;41205;44.264;19.884;2022-12-19T08:32:41;51.30;2227.20
55329;DHT22;41205;44.264;19.884;2022-12-19T08:35:09;51.30;2227.20
55329;DHT22;41205;44.264;19.884;2022-12-19T08:37:35;51.50;2227.20
55329;DHT22;41205;44.264;19.884;2022-12-19T08:40:02;51.80;2227.20
55329;DHT22;41205;44.264;19.884;2022-12-19T08:42:28;77.40;2227.20
55329;DHT22;41205;44.264;19.884;2022-12-19T08:44:53;103.20;2227.20
55329;DHT22;41205;44.264;19.884;2022-12-19T08:47:19;128.90;2252.80
55329;DHT22;41205;44.264;19.884;2022-12-19T08:49:45;154.20;2252.80
55329;DHT22;41205;44.264;19.884;2022-12-19T08:52:10;179.30;2252.80
55329;DHT22;41205;44.264;19.884;2022-12-19T08:54:36;180.10;2252.80
55329;DHT22;41205;44.264;19.884;2022-12-19T08:57:02;205.30;2150.40
55329;DHT22;41205;44.264;19.884;2022-12-19T08:59:28;230.50;2099.20
55329;DHT22;41205;44.264;19.884;2022-12-19T09:01:53;230.40;2073.60
55329;DHT22;41205;44.264;19.884;2022-12-19T09:04:20;231.10;1996.80
55329;DHT22;41205;44.264;19.884;2022-12-19T09:06:45;230.50;2048.00
55329;DHT22;41205;44.264;19.884;2022-12-19T09:09:11;230.60;2022.40
55329;DHT22;41205;44.264;19.884;2022-12-19T09:11:37;256.50;1945.60
55329;DHT22;41205;44.264;19.884;2022-12-19T09:14:02;256.00;1920.00
55329;DHT22;41205;44.264;19.884;2022-12-19T09:16:29;256.80;1868.80
55329;DHT22;41205;44.264;19.884;2022-12-19T09:18:56;230.40;1996.80
55329;DHT22;41205;44.264;19.884;2022-12-19T09:21:24;205.60;2048.00
55329;DHT22;41205;44.264;19.884;2022-12-19T09:23:53;205.20;2048.00
55329;DHT22;41205;44.264;19.884;2022-12-19T09:26:21;154.40;2252.80
55329;DHT22;41205;44.264;19.884;2022-12-19T09:28:47;153.60;2252.80
55329;DHT22;41205;44.264;19.884;2022-12-19T09:31:17;128.30;2252.80
55329;DHT22;41205;44.264;19.884;2022-12-19T09:33:43;128.70;2252.80
55329;DHT22;41205;44.264;19.884;2022-12-19T09:36:13;128.00;2252.80
55329;DHT22;41205;44.264;19.884;2022-12-19T09:38:40;102.80;2227.20
55329;DHT22;41205;44.264;19.884;2022-12-19T09:46:45;102.40;2227.20
55329;DHT22;41205;44.264;19.884;2022-12-19T09:49:15;102.40;2227.20
55329;DHT22;41205;44.264;19.884;2022-12-19T09:51:52;77.60;2227.20
55329;DHT22;41205;44.264;19.884;2022-12-19T09:54:38;77.70;2227.20
55329;DHT22;41205;44.264;19.884;2022-12-19T09:57:15;102.50;2227.20
55329;DHT22;41205;44.264;19.884;2022-12-19T09:59:46;77.70;2227.20
55329;DHT22;41205;44.264;19.884;2022-12-19T10:05:27;102.60;2227.20
55329;DHT22;41205;44.264;19.884;2022-12-19T10:07:55;102.90;2227.20
55329;DHT22;41205;44.264;19.884;2022-12-19T10:13:11;103.10;2227.20
55329;DHT22;41205;44.264;19.884;2022-12-19T10:16:24;102.90;2227.20
55329;DHT22;41205;44.264;19.884;2022-12-19T10:18:56;102.90;2227.20
55329;DHT22;41205;44.264;19.884;2022-12-19T10:21:30;103.10;2227.20
55329;DHT22;41205;44.264;19.884;2022-12-19T10:24:27;103.00;2227.20
55329;DHT22;41205;44.264;19.884;2022-12-19T10:26:59;103.20;2227.20
55329;DHT22;41205;44.264;19.884;2022-12-19T10:29:35;128.40;2252.80
55329;DHT22;41205;44.264;19.884;2022-12-19T10:34:51;103.20;2227.20
55329;DHT22;41205;44.264;19.884;2022-12-19T10:37:26;103.30;2227.20
55329;DHT22;41205;44.264;19.884;2022-12-19T10:40:11;103.30;2227.20
55329;DHT22;41205;44.264;19.884;2022-12-19T10:43:02;128.00;2252.80
55329;DHT22;41205;44.264;19.884;2022-12-19T10:45:39;103.10;2227.20
55329;DHT22;41205;44.264;19.884;2022-12-19T10:48:12;103.00;2227.20
55329;DHT22;41205;44.264;19.884;2022-12-19T10:50:39;103.10;2227.20
55329;DHT22;41205;44.264;19.884;2022-12-19T10:53:07;128.10;2252.80
55329;DHT22;41205;44.264;19.884;2022-12-19T10:55:50;128.20;2252.80
55329;DHT22;41205;44.264;19.884;2022-12-19T11:01:31;128.30;2252.80
55329;DHT22;41205;44.264;19.884;2022-12-19T11:03:32;128.60;2252.80
55329;DHT22;41205;44.264;19.884;2022-12-19T11:05:59;128.80;2252.80
55329;DHT22;41205;44.264;19.884;2022-12-19T11:08:35;153.60;2252.80
55329;DHT22;41205;44.264;19.884;2022-12-19T11:16:00;154.30;2252.80
55329;DHT22;41205;44.264;19.884;2022-12-19T11:21:27;154.10;2252.80
55329;DHT22;41205;44.264;19.884;2022-12-19T11:24:12;153.80;2252.80
55329;DHT22;41205;44.264;19.884;2022-12-19T11:26:43;153.60;2252.80
55329;DHT22;41205;44.264;19.884;2022-12-19T11:29:44;153.70;2252.80
55329;DHT22;41205;44.264;19.884;2022-12-19T11:32:41;153.90;2252.80
55329;DHT22;41205;44.264;19.884;2022-12-19T11:35:22;154.10;2252.80
55329;DHT22;41205;44.264;19.884;2022-12-19T11:37:57;154.30;2252.80
55329;DHT22;41205;44.264;19.884;2022-12-19T11:40:33;154.40;2252.80
55329;DHT22;41205;44.264;19.884;2022-12-19T11:48:40;154.40;2252.80
55329;DHT22;41205;44.264;19.884;2022-12-19T11:56:29;154.30;2252.80
55329;DHT22;41205;44.264;19.884;2022-12-19T11:59:17;154.50;2252.80
55329;DHT22;41205;44.264;19.884;2022-12-19T12:02:09;154.30;2252.80
55329;DHT22;41205;44.264;19.884;2022-12-19T12:07:36;154.10;2252.80
55329;DHT22;41205;44.264;19.884;2022-12-19T12:10:16;153.90;2252.80
55329;DHT22;41205;44.264;19.884;2022-12-19T12:13:09;154.30;2252.80
55329;DHT22;41205;44.264;19.884;2022-12-19T12:18:51;154.20;2252.80
55329;DHT22;41205;44.264;19.884;2022-12-19T12:21:23;154.40;2252.80
55329;DHT22;41205;44.264;19.884;2022-12-19T12:24:12;154.40;2252.80
55329;DHT22;41205;44.264;19.884;2022-12-19T12:29:26;179.30;2252.80
55329;DHT22;41205;44.264;19.884;2022-12-19T12:32:40;179.50;2252.80
55329;DHT22;41205;44.264;19.884;2022-12-19T12:38:28;179.20;2252.80
55329;DHT22;41205;44.264;19.884;2022-12-19T12:40:56;179.40;2252.80
55329;DHT22;41205;44.264;19.884;2022-12-19T12:45:51;154.20;2252.80
55329;DHT22;41205;44.264;19.884;2022-12-19T12:50:49;154.40;2252.80
55329;DHT22;41205;44.264;19.884;2022-12-19T12:53:18;179.20;2252.80
55329;DHT22;41205;44.264;19.884;2022-12-19T12:55:45;179.40;2252.80
55329;DHT22;41205;44.264;19.884;2022-12-19T13:06:40;154.40;2252.80
55329;DHT22;41205;44.264;19.884;2022-12-19T13:12:34;154.10;2252.80
55329;DHT22;41205;44.264;19.884;2022-12-19T13:14:53;154.20;2252.80
55329;DHT22;41205;44.264;19.884;2022-12-19T13:24:56;154.30;2252.80
55329;DHT22;41205;44.264;19.884;2022-12-19T13:38:02;154.10;2252.80
55329;DHT22;41205;44.264;19.884;2022-12-19T13:43:57;154.00;2252.80
55329;DHT22;41205;44.264;19.884;2022-12-19T13:46:39;154.10;2252.80
55329;DHT22;41205;44.264;19.884;2022-12-19T13:49:16;154.20;2252.80
55329;DHT22;41205;44.264;19.884;2022-12-19T13:51:51;154.20;2252.80
55329;DHT22;41205;44.264;19.884;2022-12-19T13:54:23;153.90;2252.80
55329;DHT22;41205;44.264;19.884;2022-12-19T13:56:51;153.90;2252.80
55329;DHT22;41205;44.264;19.884;2022-12-19T13:59:18;153.80;2252.80
55329;DHT22;41205;44.264;19.884;2022-12-19T14:01:45;153.60;2252.80
55329;DHT22;41205;44.264;19.884;2022-12-19T14:04:28;128.90;2252.80
55329;DHT22;41205;44.264;19.884;2022-12-19T14:10:04;153.60;2252.80
55329;DHT22;41205;44.264;19.884;2022-12-19T14:12:37;128.80;2252.80
55329;DHT22;41205;44.264;19.884;2022-12-19T14:15:34;128.90;2252.80
55329;DHT22;41205;44.264;19.884;2022-12-19T14:18:06;128.40;2252.80
55329;DHT22;41205;44.264;19.884;2022-12-19T14:20:33;128.50;2252.80
55329;DHT22;41205;44.264;19.884;2022-12-19T14:23:00;128.20;2252.80
55329;DHT22;41205;44.264;19.884;2022-12-19T14:28:06;128.20;2252.80
55329;DHT22;41205;44.264;19.884;2022-12-19T14:30:35;128.10;2252.80
55329;DHT22;41205;44.264;19.884;2022-12-19T14:33:22;128.10;2252.80
55329;DHT22;41205;44.264;19.884;2022-12-19T14:35:52;128.10;2252.80
55329;DHT22;41205;44.264;19.884;2022-12-19T14:38:22;128.00;2252.80
55329;DHT22;41205;44.264;19.884;2022-12-19T14:40:49;103.30;2227.20
55329;DHT22;41205;44.264;19.884;2022-12-19T14:43:19;103.20;2227.20
55329;DHT22;41205;44.264;19.884;2022-12-19T14:46:26;103.20;2227.20
55329;DHT22;41205;44.264;19.884;2022-12-19T14:48:59;103.10;2227.20
55329;DHT22;41205;44.264;19.884;2022-12-19T14:51:35;103.10;2227.20
55329;DHT22;41205;44.264;19.884;2022-12-19T14:54:05;103.00;2227.20
55329;DHT22;41205;44.264;19.884;2022-12-19T15:02:21;102.90;2227.20
55329;DHT22;41205;44.264;19.884;2022-12-19T15:04:59;102.80;2227.20
55329;DHT22;41205;44.264;19.884;2022-12-19T15:07:28;102.80;2227.20
55329;DHT22;41205;44.264;19.884;2022-12-19T15:10:06;102.80;2227.20
55329;DHT22;41205;44.264;19.884;2022-12-19T15:12:46;102.70;2227.20
55329;DHT22;41205;44.264;19.884;2022-12-19T15:15:55;102.70;2227.20
55329;DHT22;41205;44.264;19.884;2022-12-19T15:18:24;102.70;2227.20
55329;DHT22;41205;44.264;19.884;2022-12-19T15:20:52;102.50;2227.20
55329;DHT22;41205;44.264;19.884;2022-12-19T15:23:18;102.40;2227.20
55329;DHT22;41205;44.264;19.884;2022-12-19T15:25:44;102.40;2227.20
55329;DHT22;41205;44.264;19.884;2022-12-19T15:28:22;77.70;2227.20
55329;DHT22;41205;44.264;19.884;2022-12-19T15:30:56;77.60;2227.20
55329;DHT22;41205;44.264;19.884;2022-12-19T15:33:23;77.60;2227.20
55329;DHT22;41205;44.264;19.884;2022-12-19T15:35:49;77.60;2227.20
55329;DHT22;41205;44.264;19.884;2022-12-19T15:38:14;77.70;2227.20
55329;DHT22;41205;44.264;19.884;2022-12-19T15:40:40;77.60;2227.20
55329;DHT22;41205;44.264;19.884;2022-12-19T15:43:29;77.60;2227.20
55329;DHT22;41205;44.264;19.884;2022-12-19T15:45:57;77.50;2227.20
55329;DHT22;41205;44.264;19.884;2022-12-19T15:48:24;77.50;2227.20
55329;DHT22;41205;44.264;19.884;2022-12-19T15:50:50;77.60;2227.20
55329;DHT22;41205;44.264;19.884;2022-12-19T15:53:27;77.60;2227.20
55329;DHT22;41205;44.264;19.884;2022-12-19T15:55:55;77.50;2227.20
55329;DHT22;41205;44.264;19.884;2022-12-19T15:58:22;77.40;2227.20
55329;DHT22;41205;44.264;19.884;2022-12-19T16:00:53;77.30;2227.20
55329;DHT22;41205;44.264;19.884;2022-12-19T16:03:20;77.20;2227.20
55329;DHT22;41205;44.264;19.884;2022-12-19T16:05:46;77.20;2227.20
55329;DHT22;41205;44.264;19.884;2022-12-19T16:08:17;77.10;2227.20
55329;DHT22;41205;44.264;19.884;2022-12-19T16:10:51;77.30;2227.20
55329;DHT22;41205;44.264;19.884;2022-12-19T16:13:26;77.10;2227.20
55329;DHT22;41205;44.264;19.884;2022-12-19T16:15:53;77.10;2227.20
55329;DHT22;41205;44.264;19.884;2022-12-19T16:18:20;77.20;2227.20
55329;DHT22;41205;44.264;19.884;2022-12-19T16:20:46;77.20;2227.20
55329;DHT22;41205;44.264;19.884;2022-12-19T16:23:13;77.10;2227.20
55329;DHT22;41205;44.264;19.884;2022-12-19T16:28:07;77.00;2227.20
55329;DHT22;41205;44.264;19.884;2022-12-19T16:30:36;77.10;2227.20
55329;DHT22;41205;44.264;19.884;2022-12-19T16:33:07;77.00;2227.20
55329;DHT22;41205;44.264;19.884;2022-12-19T16:35:39;77.00;2227.20
55329;DHT22;41205;44.264;19.884;2022-12-19T16:38:04;76.90;2227.20
55329;DHT22;41205;44.264;19.884;2022-12-19T16:40:30;76.90;2227.20
55329;DHT22;41205;44.264;19.884;2022-12-19T16:43:14;77.00;2227.20
55329;DHT22;41205;44.264;19.884;2022-12-19T16:45:41;77.00;2227.20
55329;DHT22;41205;44.264;19.884;2022-12-19T16:48:27;77.00;2227.20
55329;DHT22;41205;44.264;19.884;2022-12-19T16:50:57;77.00;2227.20
55329;DHT22;41205;44.264;19.884;2022-12-19T16:53:23;76.90;2227.20
55329;DHT22;41205;44.264;19.884;2022-12-19T16:55:49;77.00;2227.20
55329;DHT22;41205;44.264;19.884;2022-12-19T16:58:19;77.00;2227.20
55329;DHT22;41205;44.264;19.884;2022-12-19T17:00:45;77.00;2227.20
55329;DHT22;41205;44.264;19.884;2022-12-19T17:03:43;76.90;2227.20
55329;DHT22;41205;44.264;19.884;2022-12-19T17:06:18;76.90;2227.20
55329;DHT22;41205;44.264;19.884;2022-12-19T17:08:44;76.90;2227.20